KMDTKHGR

Guest
Details From KMDT - HARRISBURG INTL
To KHGR - HAGERSTOWN RGNL RICHARD A HENSON FLD
Flight Number -
Tags generated
Created
Modified
Stats Distance 53 nm / 98 km
Max Altitude 5,200 ft / 1,585 m
Waypoints 3
Social Downloads 0
Likes 0
Share VATSIM

Download

Looking for another format? Having issues loading an existing format? Contact us
Advertisement - Login to hide

Notes

Basic altitude profile: - Ascent Rate: 2500ft/min - Ascent Speed: 250kts - Cruise Altitude: 35000ft - Cruise Speed: 420kts - Descent Rate: 1500ft/min - Descent Speed: 250kts Options: - Use NATs: yes - Use PACOTS: yes - Use low airways: yes - Use high airways: yes

Route

KMDT KOLBY KHGR

ID Type Via Altitude Latitude Longitude Leg Dist Tot Dist Heading (true) Name
O KMDT APT - 0 ft / 0 m 40.19319˚ -76.76262˚ - 0 nm - HARRISBURG INTL
KOLBY FIX - 5,200 ft / 1,585 m 40.07351˚ -77.04354˚ 14 nm 14 nm 241° / 241° -
O KHGR APT - 0 ft / 0 m 39.70835˚ -77.72770˚ 38 nm 53 nm 235° / 235° HAGERSTOWN RGNL RICHARD A HENSON FLD

Altitude Profile

Advertisement - Login to hide

KMDT

Details ICAO KMDT (MDT)
Name HARRISBURG INTL
Region United States
Timezone America/New_York (UTC-4.0)
Stats Elevation 310 ft / 94 m (AMSL)
Location 40.193191° -76.762619°
Runways 1
Magnetic Variation 11.274° W

METAR

KMDT 211456Z 26003KT 10SM BKN035 BKN100 21/13 A3023 RMK AO2 SLP235 T02110133 50006

Decode

TAF

KMDT 211131Z 2112/2212 VRB03KT P6SM BKN200 FM220000 14003KT P6SM BKN100 FM220800 13003KT P6SM VCSH OVC050

Decode

Departure Runways

ID Width Length Bearing (true) Bearing (mag) Surface Threshold Offset Overrun Length
13 200 ft / 61 m 9,987 ft / 3,044 m 116.86° 128.13° Asphalt 993 ft / 303 m 0 ft / 0 m
31 200 ft / 61 m 9,987 ft / 3,044 m 296.88° 308.15° Asphalt 994 ft / 303 m 0 ft / 0 m

KHGR

Details ICAO KHGR (HGR)
Name HAGERSTOWN RGNL RICHARD A HENSON FLD
Region United States
Timezone America/New_York (UTC-4.0)
Stats Elevation 704 ft / 215 m (AMSL)
Location 39.708352° -77.727704°
Runways 2
Magnetic Variation 10.595° W

METAR

KHGR 211453Z VRB03KT 10SM CLR 22/13 A3022 RMK AO2 SLP240 T02220133 50003

Decode

TAF

Not found

Destination Runways

ID Width Length Bearing (true) Bearing (mag) Surface Threshold Offset Overrun Length
02 98 ft / 30 m 3,163 ft / 964 m 14.80° 25.39° Asphalt 0 ft / 0 m 0 ft / 0 m
09 151 ft / 46 m 7,007 ft / 2,136 m 80.45° 91.04° Asphalt 0 ft / 0 m 384 ft / 117 m
20 98 ft / 30 m 3,163 ft / 964 m 194.81° 205.40° Asphalt 0 ft / 0 m 0 ft / 0 m
27 151 ft / 46 m 7,007 ft / 2,136 m 260.47° 271.06° Asphalt 115 ft / 35 m 0 ft / 0 m

Approach Navaids

Runway Type Ident Frequency Range Bearing (true) Bearing (mag) Slope Elevation
27 Localiser IHGR 111.90 MHz 18 nm / 33 km 260.42° 271.01° - 648 ft / 198 m (AMSL)
27 Glidescope IHGR 111.90 MHz 10 nm / 19 km 260.46° 271.05° 3.00° 695 ft / 212 m (AMSL)
27 DME IHGR 111.90 MHz 18 nm / 33 km - - - 660 ft / 201 m (AMSL)

Popular Alternatives